sensor_id;sensor_type;location;lat;lon;timestamp;P1;durP1;ratioP1;P2;durP2;ratioP2
4762;SDS011;2395;50.738;7.122;2022-07-25T00:00:23;8.50;;;6.97;;
4762;SDS011;2395;50.738;7.122;2022-07-25T00:02:50;14.13;;;6.90;;
4762;SDS011;2395;50.738;7.122;2022-07-25T00:05:17;8.33;;;7.20;;
4762;SDS011;2395;50.738;7.122;2022-07-25T00:07:44;9.53;;;7.80;;
4762;SDS011;2395;50.738;7.122;2022-07-25T00:10:11;10.40;;;8.13;;
4762;SDS011;2395;50.738;7.122;2022-07-25T00:12:38;8.43;;;7.20;;
4762;SDS011;2395;50.738;7.122;2022-07-25T00:15:08;9.90;;;7.57;;
4762;SDS011;2395;50.738;7.122;2022-07-25T00:17:38;9.90;;;7.80;;
4762;SDS011;2395;50.738;7.122;2022-07-25T00:20:06;8.43;;;7.60;;
4762;SDS011;2395;50.738;7.122;2022-07-25T00:22:34;8.20;;;7.20;;
4762;SDS011;2395;50.738;7.122;2022-07-25T00:25:01;8.60;;;7.80;;
4762;SDS011;2395;50.738;7.122;2022-07-25T00:27:29;9.70;;;6.83;;
4762;SDS011;2395;50.738;7.122;2022-07-25T00:29:56;9.03;;;7.40;;
4762;SDS011;2395;50.738;7.122;2022-07-25T00:32:23;10.10;;;8.03;;
4762;SDS011;2395;50.738;7.122;2022-07-25T00:34:51;9.93;;;7.47;;
4762;SDS011;2395;50.738;7.122;2022-07-25T00:37:18;9.23;;;7.73;;
4762;SDS011;2395;50.738;7.122;2022-07-25T00:39:45;10.00;;;7.80;;
4762;SDS011;2395;50.738;7.122;2022-07-25T00:42:12;9.23;;;8.20;;
4762;SDS011;2395;50.738;7.122;2022-07-25T00:44:39;10.13;;;7.43;;
4762;SDS011;2395;50.738;7.122;2022-07-25T00:47:06;8.73;;;7.00;;
4762;SDS011;2395;50.738;7.122;2022-07-25T00:49:33;9.40;;;8.00;;
4762;SDS011;2395;50.738;7.122;2022-07-25T00:52:01;11.57;;;7.90;;
4762;SDS011;2395;50.738;7.122;2022-07-25T00:54:29;8.70;;;7.80;;
4762;SDS011;2395;50.738;7.122;2022-07-25T00:56:56;8.80;;;7.90;;
4762;SDS011;2395;50.738;7.122;2022-07-25T00:59:23;7.77;;;6.97;;
4762;SDS011;2395;50.738;7.122;2022-07-25T01:01:50;10.00;;;8.47;;
4762;SDS011;2395;50.738;7.122;2022-07-25T01:04:18;11.07;;;7.80;;
4762;SDS011;2395;50.738;7.122;2022-07-25T01:06:45;14.83;;;8.13;;
4762;SDS011;2395;50.738;7.122;2022-07-25T01:09:13;10.13;;;7.77;;
4762;SDS011;2395;50.738;7.122;2022-07-25T01:11:41;10.47;;;7.43;;
4762;SDS011;2395;50.738;7.122;2022-07-25T01:14:08;10.73;;;8.00;;
4762;SDS011;2395;50.738;7.122;2022-07-25T01:16:35;9.83;;;7.40;;
4762;SDS011;2395;50.738;7.122;2022-07-25T01:19:05;8.70;;;7.80;;
4762;SDS011;2395;50.738;7.122;2022-07-25T01:21:36;9.23;;;8.33;;
4762;SDS011;2395;50.738;7.122;2022-07-25T01:24:04;8.90;;;8.00;;
4762;SDS011;2395;50.738;7.122;2022-07-25T01:26:33;9.33;;;7.87;;
4762;SDS011;2395;50.738;7.122;2022-07-25T01:29:00;9.40;;;7.30;;
4762;SDS011;2395;50.738;7.122;2022-07-25T01:31:28;9.77;;;7.37;;
4762;SDS011;2395;50.738;7.122;2022-07-25T01:33:55;8.73;;;7.77;;
4762;SDS011;2395;50.738;7.122;2022-07-25T01:36:22;9.37;;;8.20;;
4762;SDS011;2395;50.738;7.122;2022-07-25T01:38:50;8.63;;;7.63;;
4762;SDS011;2395;50.738;7.122;2022-07-25T01:41:17;9.80;;;7.40;;
4762;SDS011;2395;50.738;7.122;2022-07-25T01:43:44;8.13;;;7.00;;
4762;SDS011;2395;50.738;7.122;2022-07-25T01:46:11;8.37;;;7.20;;
4762;SDS011;2395;50.738;7.122;2022-07-25T01:48:38;9.23;;;8.33;;
4762;SDS011;2395;50.738;7.122;2022-07-25T01:51:06;9.63;;;8.10;;
4762;SDS011;2395;50.738;7.122;2022-07-25T01:53:34;12.40;;;8.17;;
4762;SDS011;2395;50.738;7.122;2022-07-25T01:56:03;8.83;;;7.70;;
4762;SDS011;2395;50.738;7.122;2022-07-25T01:58:30;10.70;;;8.70;;
4762;SDS011;2395;50.738;7.122;2022-07-25T02:00:57;10.50;;;7.90;;
4762;SDS011;2395;50.738;7.122;2022-07-25T02:03:24;8.80;;;7.90;;
4762;SDS011;2395;50.738;7.122;2022-07-25T02:05:58;10.43;;;8.00;;
4762;SDS011;2395;50.738;7.122;2022-07-25T02:08:28;8.70;;;7.50;;
4762;SDS011;2395;50.738;7.122;2022-07-25T02:10:55;8.57;;;7.27;;
4762;SDS011;2395;50.738;7.122;2022-07-25T02:13:24;11.50;;;7.87;;
4762;SDS011;2395;50.738;7.122;2022-07-25T02:15:52;9.07;;;7.90;;
4762;SDS011;2395;50.738;7.122;2022-07-25T02:18:19;13.73;;;8.23;;
4762;SDS011;2395;50.738;7.122;2022-07-25T02:20:46;11.03;;;8.37;;
4762;SDS011;2395;50.738;7.122;2022-07-25T02:23:13;9.80;;;7.70;;
4762;SDS011;2395;50.738;7.122;2022-07-25T02:25:40;15.30;;;8.40;;
4762;SDS011;2395;50.738;7.122;2022-07-25T02:28:07;10.50;;;7.57;;
4762;SDS011;2395;50.738;7.122;2022-07-25T02:30:35;10.70;;;8.17;;
4762;SDS011;2395;50.738;7.122;2022-07-25T02:33:02;9.50;;;7.90;;
4762;SDS011;2395;50.738;7.122;2022-07-25T02:35:30;10.00;;;7.90;;
4762;SDS011;2395;50.738;7.122;2022-07-25T02:37:57;10.27;;;8.33;;
4762;SDS011;2395;50.738;7.122;2022-07-25T02:40:24;9.00;;;7.83;;
4762;SDS011;2395;50.738;7.122;2022-07-25T02:42:52;10.53;;;8.10;;
4762;SDS011;2395;50.738;7.122;2022-07-25T02:45:19;9.40;;;8.40;;
4762;SDS011;2395;50.738;7.122;2022-07-25T02:47:47;9.07;;;8.10;;
4762;SDS011;2395;50.738;7.122;2022-07-25T02:50:14;10.53;;;8.97;;
4762;SDS011;2395;50.738;7.122;2022-07-25T02:52:42;9.00;;;7.80;;
4762;SDS011;2395;50.738;7.122;2022-07-25T02:55:09;9.13;;;8.23;;
4762;SDS011;2395;50.738;7.122;2022-07-25T02:57:37;12.00;;;8.77;;
4762;SDS011;2395;50.738;7.122;2022-07-25T03:00:05;10.73;;;8.93;;
4762;SDS011;2395;50.738;7.122;2022-07-25T03:02:34;8.77;;;7.87;;
4762;SDS011;2395;50.738;7.122;2022-07-25T03:05:04;9.63;;;7.93;;
4762;SDS011;2395;50.738;7.122;2022-07-25T03:07:32;11.30;;;8.20;;
4762;SDS011;2395;50.738;7.122;2022-07-25T03:09:59;12.13;;;8.30;;
4762;SDS011;2395;50.738;7.122;2022-07-25T03:12:26;14.47;;;8.90;;
4762;SDS011;2395;50.738;7.122;2022-07-25T03:14:53;9.40;;;8.40;;
4762;SDS011;2395;50.738;7.122;2022-07-25T03:17:20;12.17;;;8.40;;
4762;SDS011;2395;50.738;7.122;2022-07-25T03:19:47;13.60;;;7.80;;
4762;SDS011;2395;50.738;7.122;2022-07-25T03:22:15;12.33;;;7.77;;
4762;SDS011;2395;50.738;7.122;2022-07-25T03:24:43;7.90;;;7.10;;
4762;SDS011;2395;50.738;7.122;2022-07-25T03:27:09;8.63;;;7.70;;
4762;SDS011;2395;50.738;7.122;2022-07-25T03:29:37;9.10;;;8.20;;
4762;SDS011;2395;50.738;7.122;2022-07-25T03:32:04;9.93;;;8.33;;
4762;SDS011;2395;50.738;7.122;2022-07-25T03:34:33;9.90;;;7.93;;
4762;SDS011;2395;50.738;7.122;2022-07-25T03:37:00;11.00;;;7.97;;
4762;SDS011;2395;50.738;7.122;2022-07-25T03:39:29;10.07;;;7.87;;
4762;SDS011;2395;50.738;7.122;2022-07-25T03:41:56;9.73;;;7.70;;
4762;SDS011;2395;50.738;7.122;2022-07-25T03:44:24;9.67;;;8.53;;
4762;SDS011;2395;50.738;7.122;2022-07-25T03:46:51;11.17;;;7.97;;
4762;SDS011;2395;50.738;7.122;2022-07-25T03:49:18;9.30;;;7.73;;
4762;SDS011;2395;50.738;7.122;2022-07-25T03:51:45;9.73;;;8.43;;
4762;SDS011;2395;50.738;7.122;2022-07-25T03:54:12;11.60;;;8.67;;
4762;SDS011;2395;50.738;7.122;2022-07-25T03:56:41;8.60;;;7.80;;
4762;SDS011;2395;50.738;7.122;2022-07-25T03:59:12;12.23;;;8.23;;
4762;SDS011;2395;50.738;7.122;2022-07-25T04:01:41;11.20;;;8.80;;
4762;SDS011;2395;50.738;7.122;2022-07-25T04:04:10;9.23;;;8.17;;
4762;SDS011;2395;50.738;7.122;2022-07-25T04:06:38;9.00;;;8.10;;
4762;SDS011;2395;50.738;7.122;2022-07-25T04:09:06;9.63;;;8.73;;
4762;SDS011;2395;50.738;7.122;2022-07-25T04:11:35;8.80;;;7.90;;
4762;SDS011;2395;50.738;7.122;2022-07-25T04:14:04;9.83;;;7.40;;
4762;SDS011;2395;50.738;7.122;2022-07-25T04:16:31;10.77;;;7.87;;
4762;SDS011;2395;50.738;7.122;2022-07-25T04:18:59;8.20;;;7.33;;
4762;SDS011;2395;50.738;7.122;2022-07-25T04:21:26;10.73;;;8.80;;
4762;SDS011;2395;50.738;7.122;2022-07-25T04:23:53;10.57;;;8.10;;
4762;SDS011;2395;50.738;7.122;2022-07-25T04:26:21;10.57;;;8.40;;
4762;SDS011;2395;50.738;7.122;2022-07-25T04:28:48;12.77;;;7.63;;
4762;SDS011;2395;50.738;7.122;2022-07-25T04:31:16;8.50;;;7.67;;
4762;SDS011;2395;50.738;7.122;2022-07-25T04:33:43;10.20;;;8.50;;
4762;SDS011;2395;50.738;7.122;2022-07-25T04:36:10;9.67;;;7.67;;
4762;SDS011;2395;50.738;7.122;2022-07-25T04:38:37;9.53;;;8.53;;
4762;SDS011;2395;50.738;7.122;2022-07-25T04:41:05;9.90;;;8.40;;
4762;SDS011;2395;50.738;7.122;2022-07-25T04:43:32;10.73;;;8.33;;
4762;SDS011;2395;50.738;7.122;2022-07-25T04:45:59;10.50;;;8.20;;
4762;SDS011;2395;50.738;7.122;2022-07-25T04:48:27;12.13;;;8.47;;
4762;SDS011;2395;50.738;7.122;2022-07-25T04:50:54;9.87;;;8.53;;
4762;SDS011;2395;50.738;7.122;2022-07-25T04:53:21;12.13;;;8.00;;
4762;SDS011;2395;50.738;7.122;2022-07-25T04:55:48;9.57;;;7.73;;
4762;SDS011;2395;50.738;7.122;2022-07-25T04:58:15;9.47;;;7.23;;
4762;SDS011;2395;50.738;7.122;2022-07-25T05:00:42;9.83;;;7.40;;
4762;SDS011;2395;50.738;7.122;2022-07-25T05:03:10;9.97;;;8.03;;
4762;SDS011;2395;50.738;7.122;2022-07-25T05:05:38;9.70;;;8.70;;
4762;SDS011;2395;50.738;7.122;2022-07-25T05:08:05;11.03;;;7.90;;
4762;SDS011;2395;50.738;7.122;2022-07-25T05:10:32;12.60;;;9.03;;
4762;SDS011;2395;50.738;7.122;2022-07-25T05:12:59;10.43;;;8.27;;
4762;SDS011;2395;50.738;7.122;2022-07-25T05:15:26;9.03;;;7.60;;
4762;SDS011;2395;50.738;7.122;2022-07-25T05:17:52;8.37;;;7.57;;
4762;SDS011;2395;50.738;7.122;2022-07-25T05:20:20;10.80;;;8.10;;
4762;SDS011;2395;50.738;7.122;2022-07-25T05:22:48;10.00;;;8.60;;
4762;SDS011;2395;50.738;7.122;2022-07-25T05:25:16;12.60;;;9.10;;
4762;SDS011;2395;50.738;7.122;2022-07-25T05:27:43;9.43;;;8.23;;
4762;SDS011;2395;50.738;7.122;2022-07-25T05:30:11;13.63;;;8.37;;
4762;SDS011;2395;50.738;7.122;2022-07-25T05:32:40;10.00;;;7.70;;
4762;SDS011;2395;50.738;7.122;2022-07-25T05:35:07;8.47;;;7.67;;
4762;SDS011;2395;50.738;7.122;2022-07-25T05:37:35;14.73;;;7.90;;
4762;SDS011;2395;50.738;7.122;2022-07-25T05:40:05;14.07;;;8.70;;
4762;SDS011;2395;50.738;7.122;2022-07-25T05:42:33;12.53;;;7.93;;
4762;SDS011;2395;50.738;7.122;2022-07-25T05:48:18;9.20;;;8.17;;
4762;SDS011;2395;50.738;7.122;2022-07-25T06:01:24;8.70;;;7.73;;
4762;SDS011;2395;50.738;7.122;2022-07-25T06:03:51;13.80;;;11.70;;
4762;SDS011;2395;50.738;7.122;2022-07-25T06:06:18;8.77;;;7.30;;
4762;SDS011;2395;50.738;7.122;2022-07-25T06:08:45;10.00;;;7.73;;
4762;SDS011;2395;50.738;7.122;2022-07-25T06:11:12;8.53;;;7.57;;
4762;SDS011;2395;50.738;7.122;2022-07-25T06:13:39;10.23;;;7.60;;
4762;SDS011;2395;50.738;7.122;2022-07-25T06:16:08;9.50;;;7.57;;
4762;SDS011;2395;50.738;7.122;2022-07-25T06:18:35;12.60;;;8.20;;
4762;SDS011;2395;50.738;7.122;2022-07-25T06:21:02;11.00;;;7.73;;
4762;SDS011;2395;50.738;7.122;2022-07-25T06:23:30;11.13;;;7.67;;
4762;SDS011;2395;50.738;7.122;2022-07-25T06:25:57;13.83;;;7.70;;
4762;SDS011;2395;50.738;7.122;2022-07-25T06:28:24;11.03;;;7.70;;
4762;SDS011;2395;50.738;7.122;2022-07-25T06:30:51;9.83;;;7.47;;
4762;SDS011;2395;50.738;7.122;2022-07-25T06:33:20;10.57;;;8.10;;
4762;SDS011;2395;50.738;7.122;2022-07-25T06:35:47;8.43;;;7.53;;
4762;SDS011;2395;50.738;7.122;2022-07-25T06:38:14;17.17;;;7.40;;
4762;SDS011;2395;50.738;7.122;2022-07-25T06:40:41;11.30;;;8.60;;
4762;SDS011;2395;50.738;7.122;2022-07-25T06:43:08;10.80;;;7.40;;
4762;SDS011;2395;50.738;7.122;2022-07-25T06:45:35;11.03;;;8.07;;
4762;SDS011;2395;50.738;7.122;2022-07-25T06:48:02;10.67;;;7.90;;
4762;SDS011;2395;50.738;7.122;2022-07-25T06:50:31;10.03;;;8.00;;
4762;SDS011;2395;50.738;7.122;2022-07-25T06:52:58;10.50;;;7.80;;
4762;SDS011;2395;50.738;7.122;2022-07-25T06:55:25;9.83;;;8.00;;
4762;SDS011;2395;50.738;7.122;2022-07-25T06:57:52;10.70;;;7.50;;
4762;SDS011;2395;50.738;7.122;2022-07-25T07:00:19;11.17;;;7.60;;
4762;SDS011;2395;50.738;7.122;2022-07-25T07:02:46;12.53;;;7.37;;
4762;SDS011;2395;50.738;7.122;2022-07-25T07:05:15;8.10;;;7.17;;
4762;SDS011;2395;50.738;7.122;2022-07-25T07:07:44;11.73;;;8.00;;
4762;SDS011;2395;50.738;7.122;2022-07-25T07:10:11;9.03;;;7.60;;
4762;SDS011;2395;50.738;7.122;2022-07-25T07:12:39;18.53;;;7.50;;
4762;SDS011;2395;50.738;7.122;2022-07-25T07:15:06;8.50;;;6.83;;
4762;SDS011;2395;50.738;7.122;2022-07-25T07:17:34;9.63;;;7.63;;
4762;SDS011;2395;50.738;7.122;2022-07-25T07:20:01;9.57;;;7.50;;
4762;SDS011;2395;50.738;7.122;2022-07-25T07:22:30;8.73;;;7.83;;
4762;SDS011;2395;50.738;7.122;2022-07-25T07:24:58;11.60;;;7.50;;
4762;SDS011;2395;50.738;7.122;2022-07-25T07:27:25;8.50;;;6.83;;
4762;SDS011;2395;50.738;7.122;2022-07-25T07:29:52;10.97;;;7.67;;
4762;SDS011;2395;50.738;7.122;2022-07-25T07:32:19;9.20;;;7.37;;
4762;SDS011;2395;50.738;7.122;2022-07-25T07:34:46;8.40;;;7.53;;
4762;SDS011;2395;50.738;7.122;2022-07-25T07:37:13;11.20;;;7.70;;
4762;SDS011;2395;50.738;7.122;2022-07-25T07:39:40;8.03;;;7.27;;
4762;SDS011;2395;50.738;7.122;2022-07-25T07:42:08;10.10;;;7.90;;
4762;SDS011;2395;50.738;7.122;2022-07-25T07:44:35;8.73;;;7.30;;
4762;SDS011;2395;50.738;7.122;2022-07-25T07:47:02;10.30;;;7.90;;
4762;SDS011;2395;50.738;7.122;2022-07-25T07:49:29;8.57;;;7.13;;
4762;SDS011;2395;50.738;7.122;2022-07-25T07:51:56;9.13;;;7.43;;
4762;SDS011;2395;50.738;7.122;2022-07-25T07:54:23;10.50;;;6.80;;
4762;SDS011;2395;50.738;7.122;2022-07-25T07:57:09;9.77;;;7.63;;
4762;SDS011;2395;50.738;7.122;2022-07-25T07:59:36;8.23;;;7.40;;
4762;SDS011;2395;50.738;7.122;2022-07-25T08:02:03;9.13;;;6.87;;
4762;SDS011;2395;50.738;7.122;2022-07-25T08:04:30;11.50;;;8.10;;
4762;SDS011;2395;50.738;7.122;2022-07-25T08:06:57;12.80;;;7.67;;
4762;SDS011;2395;50.738;7.122;2022-07-25T08:09:24;11.70;;;7.50;;
4762;SDS011;2395;50.738;7.122;2022-07-25T08:11:51;10.20;;;8.03;;
4762;SDS011;2395;50.738;7.122;2022-07-25T08:14:20;8.80;;;7.60;;
4762;SDS011;2395;50.738;7.122;2022-07-25T08:16:47;9.50;;;7.60;;
4762;SDS011;2395;50.738;7.122;2022-07-25T08:19:16;10.27;;;8.37;;
4762;SDS011;2395;50.738;7.122;2022-07-25T08:21:43;10.77;;;8.00;;
4762;SDS011;2395;50.738;7.122;2022-07-25T08:24:10;8.00;;;7.20;;
4762;SDS011;2395;50.738;7.122;2022-07-25T08:26:37;8.23;;;7.20;;
4762;SDS011;2395;50.738;7.122;2022-07-25T08:29:04;9.20;;;7.80;;
4762;SDS011;2395;50.738;7.122;2022-07-25T08:31:32;7.80;;;7.00;;
4762;SDS011;2395;50.738;7.122;2022-07-25T08:33:59;7.67;;;6.87;;
4762;SDS011;2395;50.738;7.122;2022-07-25T08:36:27;9.20;;;7.33;;
4762;SDS011;2395;50.738;7.122;2022-07-25T08:38:54;10.13;;;8.20;;
4762;SDS011;2395;50.738;7.122;2022-07-25T08:41:21;12.37;;;7.03;;
4762;SDS011;2395;50.738;7.122;2022-07-25T08:43:49;10.03;;;8.10;;
4762;SDS011;2395;50.738;7.122;2022-07-25T08:46:17;12.90;;;8.50;;
4762;SDS011;2395;50.738;7.122;2022-07-25T08:48:46;9.57;;;7.40;;
4762;SDS011;2395;50.738;7.122;2022-07-25T08:51:14;8.50;;;7.60;;
4762;SDS011;2395;50.738;7.122;2022-07-25T08:53:42;9.40;;;8.10;;
4762;SDS011;2395;50.738;7.122;2022-07-25T08:56:09;11.47;;;7.63;;
4762;SDS011;2395;50.738;7.122;2022-07-25T08:58:36;9.13;;;7.30;;
4762;SDS011;2395;50.738;7.122;2022-07-25T09:01:05;9.73;;;7.07;;
4762;SDS011;2395;50.738;7.122;2022-07-25T09:03:33;8.87;;;7.33;;
4762;SDS011;2395;50.738;7.122;2022-07-25T09:06:01;8.20;;;7.30;;
4762;SDS011;2395;50.738;7.122;2022-07-25T09:08:49;7.53;;;6.83;;
4762;SDS011;2395;50.738;7.122;2022-07-25T09:14:03;10.63;;;7.33;;
4762;SDS011;2395;50.738;7.122;2022-07-25T09:16:34;8.70;;;7.30;;
4762;SDS011;2395;50.738;7.122;2022-07-25T09:19:07;8.43;;;7.50;;
4762;SDS011;2395;50.738;7.122;2022-07-25T09:21:38;10.03;;;7.67;;
4762;SDS011;2395;50.738;7.122;2022-07-25T09:24:07;8.67;;;7.57;;
4762;SDS011;2395;50.738;7.122;2022-07-25T09:26:47;8.77;;;7.60;;
4762;SDS011;2395;50.738;7.122;2022-07-25T09:29:19;8.63;;;7.50;;
4762;SDS011;2395;50.738;7.122;2022-07-25T09:31:48;8.60;;;7.30;;
4762;SDS011;2395;50.738;7.122;2022-07-25T09:34:16;12.43;;;7.37;;
4762;SDS011;2395;50.738;7.122;2022-07-25T09:36:57;8.10;;;7.30;;
4762;SDS011;2395;50.738;7.122;2022-07-25T09:39:31;9.23;;;7.97;;
4762;SDS011;2395;50.738;7.122;2022-07-25T09:42:19;9.83;;;7.20;;
4762;SDS011;2395;50.738;7.122;2022-07-25T09:44:58;11.07;;;7.57;;
4762;SDS011;2395;50.738;7.122;2022-07-25T09:47:34;8.60;;;6.90;;
4762;SDS011;2395;50.738;7.122;2022-07-25T09:50:03;8.80;;;7.47;;
4762;SDS011;2395;50.738;7.122;2022-07-25T09:52:33;9.67;;;7.20;;
4762;SDS011;2395;50.738;7.122;2022-07-25T09:55:03;10.00;;;7.50;;
4762;SDS011;2395;50.738;7.122;2022-07-25T09:57:33;8.60;;;7.10;;
4762;SDS011;2395;50.738;7.122;2022-07-25T10:00:00;7.20;;;6.50;;
4762;SDS011;2395;50.738;7.122;2022-07-25T10:02:32;10.03;;;7.80;;
4762;SDS011;2395;50.738;7.122;2022-07-25T10:05:14;11.17;;;7.70;;
4762;SDS011;2395;50.738;7.122;2022-07-25T10:07:52;8.33;;;7.50;;
4762;SDS011;2395;50.738;7.122;2022-07-25T10:10:25;9.10;;;7.70;;
4762;SDS011;2395;50.738;7.122;2022-07-25T10:12:58;8.27;;;7.13;;
4762;SDS011;2395;50.738;7.122;2022-07-25T10:15:41;8.23;;;7.43;;
4762;SDS011;2395;50.738;7.122;2022-07-25T10:18:12;8.53;;;7.20;;
4762;SDS011;2395;50.738;7.122;2022-07-25T10:20:40;14.60;;;7.90;;
4762;SDS011;2395;50.738;7.122;2022-07-25T10:23:17;8.60;;;7.30;;
4762;SDS011;2395;50.738;7.122;2022-07-25T10:25:46;9.50;;;8.17;;
4762;SDS011;2395;50.738;7.122;2022-07-25T10:28:34;8.63;;;7.20;;
4762;SDS011;2395;50.738;7.122;2022-07-25T10:31:19;10.50;;;7.67;;
4762;SDS011;2395;50.738;7.122;2022-07-25T10:33:52;9.60;;;7.57;;
4762;SDS011;2395;50.738;7.122;2022-07-25T10:36:23;8.30;;;7.20;;
4762;SDS011;2395;50.738;7.122;2022-07-25T10:38:56;10.97;;;8.10;;
4762;SDS011;2395;50.738;7.122;2022-07-25T10:41:26;12.20;;;7.97;;
4762;SDS011;2395;50.738;7.122;2022-07-25T10:43:55;14.07;;;8.87;;
4762;SDS011;2395;50.738;7.122;2022-07-25T10:46:27;12.27;;;9.00;;
4762;SDS011;2395;50.738;7.122;2022-07-25T10:48:57;10.40;;;8.50;;
4762;SDS011;2395;50.738;7.122;2022-07-25T10:51:26;11.67;;;9.20;;
4762;SDS011;2395;50.738;7.122;2022-07-25T10:53:56;10.40;;;7.90;;
4762;SDS011;2395;50.738;7.122;2022-07-25T10:56:23;12.80;;;8.50;;
4762;SDS011;2395;50.738;7.122;2022-07-25T10:58:53;13.73;;;8.10;;
4762;SDS011;2395;50.738;7.122;2022-07-25T11:01:22;14.10;;;9.00;;
4762;SDS011;2395;50.738;7.122;2022-07-25T11:03:52;14.90;;;10.03;;
4762;SDS011;2395;50.738;7.122;2022-07-25T11:06:28;12.03;;;8.50;;
4762;SDS011;2395;50.738;7.122;2022-07-25T11:09:00;17.53;;;8.77;;
4762;SDS011;2395;50.738;7.122;2022-07-25T11:11:34;10.93;;;9.23;;
4762;SDS011;2395;50.738;7.122;2022-07-25T11:14:04;14.90;;;9.60;;
4762;SDS011;2395;50.738;7.122;2022-07-25T11:16:39;10.20;;;8.40;;
4762;SDS011;2395;50.738;7.122;2022-07-25T11:19:14;10.83;;;8.20;;
4762;SDS011;2395;50.738;7.122;2022-07-25T11:21:43;12.00;;;7.80;;
4762;SDS011;2395;50.738;7.122;2022-07-25T11:24:13;15.23;;;7.93;;
4762;SDS011;2395;50.738;7.122;2022-07-25T11:26:43;12.47;;;8.70;;
4762;SDS011;2395;50.738;7.122;2022-07-25T11:29:19;12.63;;;9.47;;
4762;SDS011;2395;50.738;7.122;2022-07-25T11:31:54;15.40;;;9.00;;
4762;SDS011;2395;50.738;7.122;2022-07-25T11:34:25;12.60;;;9.10;;
4762;SDS011;2395;50.738;7.122;2022-07-25T11:36:55;19.50;;;8.60;;
4762;SDS011;2395;50.738;7.122;2022-07-25T11:39:27;17.03;;;8.03;;
4762;SDS011;2395;50.738;7.122;2022-07-25T11:41:59;18.50;;;10.13;;
4762;SDS011;2395;50.738;7.122;2022-07-25T11:44:30;17.30;;;8.20;;
4762;SDS011;2395;50.738;7.122;2022-07-25T11:46:59;13.10;;;9.17;;
4762;SDS011;2395;50.738;7.122;2022-07-25T11:49:27;15.80;;;8.07;;
4762;SDS011;2395;50.738;7.122;2022-07-25T11:51:55;16.30;;;8.10;;
4762;SDS011;2395;50.738;7.122;2022-07-25T11:54:23;15.07;;;9.20;;
4762;SDS011;2395;50.738;7.122;2022-07-25T11:56:51;15.13;;;8.07;;
4762;SDS011;2395;50.738;7.122;2022-07-25T11:59:18;13.43;;;8.67;;
4762;SDS011;2395;50.738;7.122;2022-07-25T12:01:45;12.37;;;8.57;;
4762;SDS011;2395;50.738;7.122;2022-07-25T12:04:13;11.13;;;9.17;;
4762;SDS011;2395;50.738;7.122;2022-07-25T12:06:44;10.93;;;8.00;;
4762;SDS011;2395;50.738;7.122;2022-07-25T12:09:14;21.33;;;8.30;;
4762;SDS011;2395;50.738;7.122;2022-07-25T12:11:43;16.33;;;8.67;;
4762;SDS011;2395;50.738;7.122;2022-07-25T12:14:13;10.23;;;8.50;;
4762;SDS011;2395;50.738;7.122;2022-07-25T12:16:41;10.13;;;7.90;;
4762;SDS011;2395;50.738;7.122;2022-07-25T12:19:08;13.40;;;8.20;;
4762;SDS011;2395;50.738;7.122;2022-07-25T12:21:44;9.60;;;7.80;;
4762;SDS011;2395;50.738;7.122;2022-07-25T12:24:11;10.03;;;7.80;;
4762;SDS011;2395;50.738;7.122;2022-07-25T12:26:38;10.50;;;8.73;;
4762;SDS011;2395;50.738;7.122;2022-07-25T12:29:05;9.90;;;8.03;;
4762;SDS011;2395;50.738;7.122;2022-07-25T12:31:33;13.37;;;8.13;;
4762;SDS011;2395;50.738;7.122;2022-07-25T12:34:00;9.20;;;7.20;;
4762;SDS011;2395;50.738;7.122;2022-07-25T12:36:27;8.03;;;7.20;;
4762;SDS011;2395;50.738;7.122;2022-07-25T12:38:54;8.43;;;7.57;;
4762;SDS011;2395;50.738;7.122;2022-07-25T12:41:21;10.30;;;7.80;;
4762;SDS011;2395;50.738;7.122;2022-07-25T12:43:49;14.00;;;7.33;;
4762;SDS011;2395;50.738;7.122;2022-07-25T12:46:16;11.50;;;7.10;;
4762;SDS011;2395;50.738;7.122;2022-07-25T12:48:44;10.30;;;7.00;;
4762;SDS011;2395;50.738;7.122;2022-07-25T12:51:11;11.33;;;7.00;;
4762;SDS011;2395;50.738;7.122;2022-07-25T12:53:38;8.13;;;6.57;;
4762;SDS011;2395;50.738;7.122;2022-07-25T12:56:05;16.27;;;8.43;;
4762;SDS011;2395;50.738;7.122;2022-07-25T12:58:32;7.90;;;5.73;;
4762;SDS011;2395;50.738;7.122;2022-07-25T13:00:59;11.90;;;6.10;;
4762;SDS011;2395;50.738;7.122;2022-07-25T13:03:26;12.23;;;5.90;;
4762;SDS011;2395;50.738;7.122;2022-07-25T13:05:55;16.97;;;5.67;;
4762;SDS011;2395;50.738;7.122;2022-07-25T13:08:23;13.27;;;6.80;;
4762;SDS011;2395;50.738;7.122;2022-07-25T13:10:50;8.40;;;6.07;;
4762;SDS011;2395;50.738;7.122;2022-07-25T13:13:17;8.63;;;6.63;;
4762;SDS011;2395;50.738;7.122;2022-07-25T13:15:44;12.17;;;6.70;;
4762;SDS011;2395;50.738;7.122;2022-07-25T13:18:11;11.07;;;5.90;;
4762;SDS011;2395;50.738;7.122;2022-07-25T13:20:38;11.50;;;6.17;;
4762;SDS011;2395;50.738;7.122;2022-07-25T13:23:06;8.07;;;5.30;;
4762;SDS011;2395;50.738;7.122;2022-07-25T13:25:33;14.23;;;5.70;;
4762;SDS011;2395;50.738;7.122;2022-07-25T13:28:01;11.43;;;5.73;;
4762;SDS011;2395;50.738;7.122;2022-07-25T13:30:29;11.07;;;5.80;;
4762;SDS011;2395;50.738;7.122;2022-07-25T13:32:56;17.30;;;6.10;;
4762;SDS011;2395;50.738;7.122;2022-07-25T13:35:23;6.73;;;4.73;;
4762;SDS011;2395;50.738;7.122;2022-07-25T13:37:49;12.30;;;5.47;;
4762;SDS011;2395;50.738;7.122;2022-07-25T13:40:18;9.53;;;5.23;;
4762;SDS011;2395;50.738;7.122;2022-07-25T13:42:45;15.53;;;5.40;;
4762;SDS011;2395;50.738;7.122;2022-07-25T13:45:13;13.70;;;5.03;;
4762;SDS011;2395;50.738;7.122;2022-07-25T13:47:39;7.73;;;4.63;;
4762;SDS011;2395;50.738;7.122;2022-07-25T13:50:07;18.07;;;5.27;;
4762;SDS011;2395;50.738;7.122;2022-07-25T13:52:35;10.17;;;4.83;;
4762;SDS011;2395;50.738;7.122;2022-07-25T13:55:02;9.60;;;4.50;;
4762;SDS011;2395;50.738;7.122;2022-07-25T13:57:32;8.80;;;5.57;;
4762;SDS011;2395;50.738;7.122;2022-07-25T13:59:59;12.63;;;5.20;;
4762;SDS011;2395;50.738;7.122;2022-07-25T14:02:26;6.17;;;3.90;;
4762;SDS011;2395;50.738;7.122;2022-07-25T14:04:53;7.40;;;3.70;;
4762;SDS011;2395;50.738;7.122;2022-07-25T14:07:20;7.10;;;3.63;;
4762;SDS011;2395;50.738;7.122;2022-07-25T14:09:47;14.50;;;3.80;;
4762;SDS011;2395;50.738;7.122;2022-07-25T14:12:14;9.40;;;3.70;;
4762;SDS011;2395;50.738;7.122;2022-07-25T14:14:42;8.40;;;3.70;;
4762;SDS011;2395;50.738;7.122;2022-07-25T14:17:09;7.27;;;3.20;;
4762;SDS011;2395;50.738;7.122;2022-07-25T14:19:36;9.60;;;4.00;;
4762;SDS011;2395;50.738;7.122;2022-07-25T14:22:03;11.10;;;3.47;;
4762;SDS011;2395;50.738;7.122;2022-07-25T14:24:30;8.57;;;4.03;;
4762;SDS011;2395;50.738;7.122;2022-07-25T14:26:57;12.07;;;3.20;;
4762;SDS011;2395;50.738;7.122;2022-07-25T14:29:24;6.47;;;3.67;;
4762;SDS011;2395;50.738;7.122;2022-07-25T14:31:53;5.80;;;2.60;;
4762;SDS011;2395;50.738;7.122;2022-07-25T14:34:20;8.57;;;3.07;;
4762;SDS011;2395;50.738;7.122;2022-07-25T14:36:47;6.50;;;3.27;;
4762;SDS011;2395;50.738;7.122;2022-07-25T14:39:14;8.00;;;2.90;;
4762;SDS011;2395;50.738;7.122;2022-07-25T14:41:42;9.90;;;3.27;;
4762;SDS011;2395;50.738;7.122;2022-07-25T14:44:09;6.33;;;2.80;;
4762;SDS011;2395;50.738;7.122;2022-07-25T14:46:36;5.30;;;3.20;;
4762;SDS011;2395;50.738;7.122;2022-07-25T14:49:04;6.47;;;2.87;;
4762;SDS011;2395;50.738;7.122;2022-07-25T14:51:32;9.57;;;2.83;;
4762;SDS011;2395;50.738;7.122;2022-07-25T14:53:59;7.33;;;3.27;;
4762;SDS011;2395;50.738;7.122;2022-07-25T14:56:26;8.23;;;2.90;;
4762;SDS011;2395;50.738;7.122;2022-07-25T14:58:54;4.97;;;2.73;;
4762;SDS011;2395;50.738;7.122;2022-07-25T15:01:21;8.43;;;2.80;;
4762;SDS011;2395;50.738;7.122;2022-07-25T15:03:49;5.70;;;2.83;;
4762;SDS011;2395;50.738;7.122;2022-07-25T15:06:18;4.77;;;2.90;;
4762;SDS011;2395;50.738;7.122;2022-07-25T15:08:45;4.23;;;2.93;;
4762;SDS011;2395;50.738;7.122;2022-07-25T15:11:14;6.13;;;3.10;;
4762;SDS011;2395;50.738;7.122;2022-07-25T15:13:42;6.57;;;2.90;;
4762;SDS011;2395;50.738;7.122;2022-07-25T15:16:09;6.00;;;2.93;;
4762;SDS011;2395;50.738;7.122;2022-07-25T15:18:37;9.40;;;3.17;;
4762;SDS011;2395;50.738;7.122;2022-07-25T15:21:05;7.13;;;2.70;;
4762;SDS011;2395;50.738;7.122;2022-07-25T15:23:34;4.70;;;2.50;;
4762;SDS011;2395;50.738;7.122;2022-07-25T15:26:01;6.77;;;2.43;;
4762;SDS011;2395;50.738;7.122;2022-07-25T15:28:29;7.07;;;3.20;;
4762;SDS011;2395;50.738;7.122;2022-07-25T15:30:58;6.70;;;3.30;;